Billings Logan International Airport
KBIL : now visible

Aeroporto :











RITROVATECI SU...

 
LOGIN :

Iscrizione | Disclaimer

   EN    FR    IT 

 









Sommario :    VFR   VFR Marginale   IFR   IFR Intensivo   IFR Molto Intensivo
Visibilità : 
Base nubi : 
>= 8 km
>= 3000ft
5 / 8 km
1000 / 3000 ft
1500m / 5 km
500 / 1000 ft
800 / 1500m
200 / 500 ft
< 800m
< 200 ft
Simboli :   Temporali  Nebbia  Neve Forte  Precipitazioni Forti  Vento > 20 kt






- Altitudine del aeroporto : 3652 ft
- Codice IATA : BIL


KBIL - Billings Logan International

ULTIMO METAR :
  • 250653Z 24011KT 10SM FEW100 04/M02 A2990 RMK AO2 SLP134 T00441017 401220011

METARs OBSOLETI :
  • 250553Z 25011KT 10SM SCT095 BKN120 06/M02 A2990 RMK AO2 SLP137 T00561017 10089 20056 53002
  • 250453Z 27013KT 10SM FEW060 BKN080 07/M02 A2989 RMK AO2 SLP137 T00721017

TAF KBIL
Valido dal 25 a 06 ore il 26 a 06 ore UTC


250527Z 2506/2606 25011KT P6SM BKN090
FM251700 27015G22KT P6SM FEW070
FM260100 25011KT P6SM BKN090



MetMap, La meteo Aeronautica in un colpo d'occhio ! - Copyright ORBIFLY Dicembre 2007 - Disclaimer

ORBIFLY MET'MAP TEAM :

Programmazione e sviluppo : Alexandra Zaïnal
Concezione : Baudouin d'Aumeries
Aiuto per la programmazione : Marc-Olivier Méhu
Supporto tecnico e logistico : Manuel Goepfert
Aiuto per la traduzione : Arnaldo La Scala

Contatto : metmap@orbifly.com




FONTI E CREDITI :

   NOAA       Earth
Advisory